Station info - map view · info · telemetry · weather · raw · status · beacons · messages · bulletins · browse · moving · my account
Callsign, ship name or locator: Clear       
It is possible to search using wildcards (*?) after a prefix. Example: OH*
APRS station M3JJR - show graphs
Map loading...
Mic-E message: In service
Location: 51°50.10' N 1°08.98' W - locator IO91KU20AJ - show map - static map
4.5 miles South bearing 178° from Bicester, Oxfordshire, England, United Kingdom [?]
6.0 miles East bearing 81° from Kidlington, Oxfordshire, England, United Kingdom
49.3 miles Northwest bearing 298° from London, Greater London, England, United Kingdom
50.5 miles Northwest bearing 297° from City of London, Greater London, England, United Kingdom
Last position: 2018-09-01 21:31:43 EDT (17d 12h16m ago)
2018-09-02 02:31:43 BST local time at Bicester, United Kingdom [?]
Altitude: 217 ft
Course:
Device: Kenwood: TM-D710 (rig)
Last path: M3JJR>U1UPQP via WIDE1-1,WIDE2-1,qAR,MB7UCC (good)
Positions stored: 29520
Stations near current position of M3JJR - show more
callsign distance last heard - EDT      callsign distance last heard - EDT
BA7JG-54.0 miles 355°2018-09-01 16:28:02 DW21904.0 miles 10°2018-09-17 06:36:04
M0ZRX-95.7 miles 204°2018-08-24 16:46:18 G0RAS-57.2 miles 137°2018-09-19 09:47:21
G0RAS-77.2 miles 138°2018-09-19 02:52:06 EW49288.0 miles 16°2018-09-19 09:45:38
DW94829.6 miles 167°2018-09-15 11:41:34 GB4YOL10.1 miles 220°2018-09-19 09:38:51
M3SXA-911.6 miles 23°2018-09-18 08:24:58 G7TRV11.9 miles 207°2018-09-18 16:36:28
M0KEP-712.3 miles 204°2018-09-15 12:50:14 2E0WDS C12.6 miles 43°2018-09-18 05:19:10
2E0WDS-C12.6 miles 43°2018-09-18 05:19:20 2E0WDS B12.8 miles 39°2018-09-19 09:37:53
2E0WDS-B12.8 miles 39°2018-09-19 09:38:03 VK4CBW-912.9 miles 74°2018-09-02 07:10:37
MB7RDJ13.4 miles 97°2018-09-19 09:34:57 2E0XLX-713.4 miles 97°2018-08-27 11:42:28
M1TLK13.5 miles 30°2018-09-18 17:45:10 G0MHZ-1013.7 miles 95°2018-09-19 07:20:00
Stations which heard M3JJR directly on radio –
callsign pkts first heard - EDT last heard longest (tx => rx) longest at - EDT
MB7UP 32 2018-09-01 14:03:02 2018-09-01 20:34:03 IO91KQ > IO90LU 56.5 miles 177° 2018-09-01 20:34:03
MB7UB 7 2018-09-01 15:02:37 2018-09-01 19:33:46 IO91IK > IO81UJ 46.3 miles 267° 2018-09-01 19:33:46
MB7UJ 2 2018-09-01 19:49:51 2018-09-01 19:54:45 IO91KL > IO91PK 18.3 miles 94° 2018-09-01 19:49:51
2E1EJC 4 2018-09-01 16:37:15 2018-09-01 19:03:15 IO91HH > IO80WU 45.1 miles 227° 2018-09-01 19:03:15
MB7UG 95 2018-09-01 13:15:43 2018-09-01 20:52:27 IO90AX > IO91ME 43.9 miles 71° 2018-09-01 16:28:48
G0PEB-1 18 2018-09-01 13:55:47 2018-09-01 18:46:38 IO91GG > IO90IR 36.8 miles 166° 2018-09-01 18:46:38
G0RAS-5 29 2018-09-01 11:10:45 2018-09-01 21:16:41 IO91IN > IO91LS 18.1 miles 38° 2018-09-01 13:18:27
F8KGJ-4 3 2018-09-01 15:32:47 2018-09-01 17:47:11 IO91FE > IN98QX 158.0 miles 165° 2018-09-01 17:47:11
G0MAS 1 2018-09-01 19:01:55 2018-09-01 19:01:55 IO91HH > IO80GV 93.7 miles 254° 2018-09-01 19:01:55
F4KJL-4 2 2018-09-01 17:34:59 2018-09-01 17:35:48 IO91DC > JN09CR 127.3 miles 139° 2018-09-01 17:34:59
F4DBS-10 1 2018-09-01 15:22:06 2018-09-01 15:22:06 IO91BA > IN99FO 96.7 miles 170° 2018-09-01 15:22:06
M0GQS 83 2018-09-01 11:38:58 2018-09-01 20:17:39 IO91EC > IO91MK 36.6 miles 53° 2018-09-01 17:37:29
MB7UCC 194 2018-09-01 11:10:09 2018-09-01 21:31:43 IO91BA > IO81XW 63.0 miles 354° 2018-09-01 17:13:26
G0JMS 4 2018-09-01 19:38:44 2018-09-01 20:13:52 IO91JK > IO91MM 11.7 miles 54° 2018-09-01 19:38:44
F6KBO-5 5 2018-09-01 13:48:01 2018-09-01 19:33:17 IO91IK > IN88GN 220.8 miles 207° 2018-09-01 19:33:17
2E0KLA 10 2018-09-01 19:11:45 2018-09-01 21:14:34 IO91KU > IO91VH 54.0 miles 132° 2018-09-01 21:14:34
G0JMS-1 2 2018-09-01 20:23:04 2018-09-01 20:25:22 IO91KO > IO91MM 9.3 miles 141° 2018-09-01 20:25:22
F1IEE-10 27 2018-09-01 14:07:25 2018-09-01 20:34:00 IO91KQ > IN99HP 139.3 miles 184° 2018-09-01 20:34:00
MB7UAC 18 2018-09-01 13:19:53 2018-09-01 20:12:03 IO91DC > IO92KR 115.7 miles 13° 2018-09-01 17:33:12
G1DIO 1 2018-09-01 21:04:15 2018-09-01 21:04:15 IO91JT > IO92JG 30.9 miles 3° 2018-09-01 21:04:15

Only position packets which were originated by the station are shown here. The range statistics show some extra long hops, because some digipeaters do not correctly add themselves to the digipeater path. Please check the raw packets.
About this site
This page shows real-time information collected from the Automatic Position Reporting System Internet network (APRS-IS). APRS is used by amateur (ham) radio operators to transmit real-time position information, weather data, telemetry and messages over the radio. A vehicle equipped with a GPS receiver, a VHF transmitter or HF transceiver and a small computer device called a tracker transmits it's location, speed and course in a small data packet, which is then received by a nearby iGate receiving site which forwards the packet on the Internet. Systems connected to the Internet can send information on the APRS-IS without a radio transmitter, or collect and display information transmitted anywhere in the world.
FAQ · Blog · Discussion group · Linking to aprs.fi · AIS sites · Service status · Database statistics · Advertising on aprs.fi · Technical details · API · Change log · Planned changes · Credits and thanks · Terms Of Service · iPhone/iPad APRS